Guatrache, Argentina
Current Conditions -  °F | °C
As of 11:00 AM on Wednesday 22 Oct 2014 (Local Time) from SAZN Reporting Station
Clear Clear  
Wind Chill: 73°   Ceiling: Unl
Heat Index: 73°   Visibility: 6mi
Dew Point: 45°   Wind: 9mph
Humidity: 36%   Direction: 200°SSW
Pressure: 29.97"   Gusts: NA
Location:  37.67°S, 63.53°W
Report Text: SAZN 221400Z 20008KT CAVOK 23/07 Q1015
Loading
Personal Weather Stations






























Interactive Weather Map
Tropical Storm Tracking
New forecast layout! Learn more

10-Day Weather Forecast

Advertisements
Track Severe Weather on mobile